createdAt,value
2018-12-22T00:01:13.433Z,-1.40
2018-12-22T00:03:41.956Z,-1.40
2018-12-22T00:06:10.465Z,-1.40
2018-12-22T00:08:38.929Z,-1.40
2018-12-22T00:11:07.418Z,-1.40
2018-12-22T00:13:36.062Z,-1.50
2018-12-22T00:16:04.558Z,-1.50
2018-12-22T00:18:33.081Z,-1.40
2018-12-22T00:21:01.982Z,-1.40
2018-12-22T00:23:30.486Z,-1.40
2018-12-22T00:25:58.975Z,-1.40
2018-12-22T00:28:27.450Z,-1.50
2018-12-22T00:30:55.935Z,-1.50
2018-12-22T00:33:24.619Z,-1.40
2018-12-22T00:35:53.094Z,-1.40
2018-12-22T00:38:21.554Z,-1.50
2018-12-22T00:40:50.081Z,-1.50
2018-12-22T00:43:18.985Z,-1.50
2018-12-22T00:45:47.449Z,-1.50
2018-12-22T00:48:15.922Z,-1.40
2018-12-22T00:50:44.392Z,-1.40
2018-12-22T00:53:12.958Z,-1.40
2018-12-22T00:55:41.458Z,-1.40
2018-12-22T00:58:09.941Z,-1.40
2018-12-22T01:00:38.410Z,-1.40
2018-12-22T01:03:06.877Z,-1.40
2018-12-22T01:05:35.344Z,-1.40
2018-12-22T01:08:03.823Z,-1.30
2018-12-22T01:10:32.502Z,-1.30
2018-12-22T01:13:01.013Z,-1.30
2018-12-22T01:15:29.478Z,-1.30
2018-12-22T01:17:57.947Z,-1.40
2018-12-22T01:20:26.570Z,-1.40
2018-12-22T01:22:55.119Z,-1.40
2018-12-22T01:25:23.611Z,-1.40
2018-12-22T01:27:52.109Z,-1.40
2018-12-22T01:30:20.589Z,-1.40
2018-12-22T01:32:49.053Z,-1.30
2018-12-22T01:35:17.644Z,-1.40
2018-12-22T01:37:46.158Z,-1.40
2018-12-22T01:40:14.646Z,-1.30
2018-12-22T01:42:43.105Z,-1.40
2018-12-22T01:45:11.611Z,-1.30
2018-12-22T01:47:40.065Z,-1.30
2018-12-22T01:50:08.995Z,-1.40
2018-12-22T01:52:37.907Z,-1.40
2018-12-22T01:55:07.646Z,-1.30
2018-12-22T01:57:36.254Z,-1.30
2018-12-22T02:00:05.526Z,-1.30
2018-12-22T02:02:33.989Z,-1.30
2018-12-22T02:05:02.594Z,-1.30
2018-12-22T02:07:31.052Z,-1.30
2018-12-22T02:09:59.549Z,-1.20
2018-12-22T02:12:28.054Z,-1.20
2018-12-22T02:14:56.509Z,-1.20
2018-12-22T02:17:24.973Z,-1.20
2018-12-22T02:19:53.450Z,-1.20
2018-12-22T02:22:21.974Z,-1.30
2018-12-22T02:24:50.454Z,-1.30
2018-12-22T02:27:18.922Z,-1.30
2018-12-22T02:29:47.379Z,-1.20
2018-12-22T02:32:18.331Z,-1.30
2018-12-22T02:34:46.336Z,-1.30
2018-12-22T02:37:14.798Z,-1.30
2018-12-22T02:39:43.258Z,-1.20
2018-12-22T02:42:11.891Z,-1.20
2018-12-22T02:44:40.767Z,-1.20
2018-12-22T02:47:09.246Z,-1.20
2018-12-22T02:49:37.738Z,-1.10
2018-12-22T02:52:06.222Z,-1.20
2018-12-22T02:54:34.691Z,-1.30
2018-12-22T02:57:03.225Z,-1.30
2018-12-22T02:59:31.725Z,-1.30
2018-12-22T03:02:00.298Z,-1.30
2018-12-22T03:04:28.771Z,-1.20
2018-12-22T03:06:57.298Z,-1.30
2018-12-22T03:09:25.766Z,-1.20
2018-12-22T03:11:54.234Z,-1.20
2018-12-22T03:14:22.694Z,-1.20
2018-12-22T03:16:51.157Z,-1.20
2018-12-22T03:19:19.614Z,-1.20
2018-12-22T03:21:48.078Z,-1.20
2018-12-22T03:24:16.541Z,-1.20
2018-12-22T03:26:45.367Z,-1.20
2018-12-22T03:29:15.844Z,-1.20
2018-12-22T03:31:44.319Z,-1.30
2018-12-22T03:34:12.869Z,-1.30
2018-12-22T03:36:41.398Z,-1.30
2018-12-22T03:39:09.950Z,-1.30
2018-12-22T03:41:38.795Z,-1.30
2018-12-22T03:44:07.253Z,-1.20
2018-12-22T03:46:35.727Z,-1.20
2018-12-22T03:49:04.321Z,-1.20
2018-12-22T03:51:32.827Z,-1.30
2018-12-22T03:54:01.311Z,-1.30
2018-12-22T03:56:29.773Z,-1.30
2018-12-22T03:58:58.250Z,-1.30
2018-12-22T04:01:26.742Z,-1.20
2018-12-22T04:03:55.194Z,-1.30
2018-12-22T04:06:23.666Z,-1.20
2018-12-22T04:08:52.131Z,-1.20
2018-12-22T04:11:20.595Z,-1.20
2018-12-22T04:13:49.050Z,-1.20
2018-12-22T04:16:17.513Z,-1.20
2018-12-22T04:18:45.989Z,-1.20
2018-12-22T04:21:14.450Z,-1.20
2018-12-22T04:23:42.927Z,-1.20
2018-12-22T04:26:11.385Z,-1.20
2018-12-22T04:28:39.841Z,-1.20
2018-12-22T04:31:08.293Z,-1.20
2018-12-22T04:33:36.795Z,-1.10
2018-12-22T04:36:05.276Z,-1.20
2018-12-22T04:38:33.735Z,-1.10
2018-12-22T04:41:02.195Z,-1.20
2018-12-22T04:43:30.650Z,-1.20
2018-12-22T04:45:59.139Z,-1.20
2018-12-22T04:48:27.597Z,-1.20
2018-12-22T04:50:56.077Z,-1.20
2018-12-22T04:53:24.541Z,-1.30
2018-12-22T04:55:53.060Z,-1.20
2018-12-22T04:58:21.515Z,-1.20
2018-12-22T05:00:49.970Z,-1.20
2018-12-22T05:03:18.493Z,-1.20
2018-12-22T05:05:46.999Z,-1.20
2018-12-22T05:08:15.470Z,-1.20
2018-12-22T05:10:44.043Z,-1.30
2018-12-22T05:13:12.516Z,-1.20
2018-12-22T05:15:40.975Z,-1.20
2018-12-22T05:18:09.457Z,-1.20
2018-12-22T05:20:37.926Z,-1.10
2018-12-22T05:23:06.378Z,-1.20
2018-12-22T05:25:34.847Z,-1.10
2018-12-22T05:28:03.309Z,-1.10
2018-12-22T05:30:31.805Z,-1.10
2018-12-22T05:33:00.276Z,-1.10
2018-12-22T05:35:28.999Z,-1.10
2018-12-22T05:37:57.462Z,-1.10
2018-12-22T05:40:25.958Z,-1.10
2018-12-22T05:42:54.405Z,-1.10
2018-12-22T05:45:22.874Z,-1.10
2018-12-22T05:47:51.367Z,-1.20
2018-12-22T05:50:19.841Z,-1.20
2018-12-22T05:52:48.302Z,-1.10
2018-12-22T05:55:16.802Z,-1.10
2018-12-22T05:57:45.263Z,-1.10
2018-12-22T06:00:13.865Z,-1.00
2018-12-22T06:02:42.331Z,-1.20
2018-12-22T06:05:11.459Z,-1.20
2018-12-22T06:07:39.914Z,-1.20
2018-12-22T06:10:08.585Z,-1.20
2018-12-22T06:12:37.116Z,-1.10
2018-12-22T06:15:06.186Z,-1.20
2018-12-22T06:17:34.646Z,-1.20
2018-12-22T06:20:03.329Z,-1.20
2018-12-22T06:22:31.800Z,-1.20
2018-12-22T06:25:00.298Z,-1.30
2018-12-22T06:27:28.802Z,-1.30
2018-12-22T06:29:57.270Z,-1.30
2018-12-22T06:32:25.810Z,-1.30
2018-12-22T06:34:54.302Z,-1.30
2018-12-22T06:37:22.810Z,-1.30
2018-12-22T06:39:51.281Z,-1.30
2018-12-22T06:42:19.820Z,-1.30
2018-12-22T06:44:48.283Z,-1.20
2018-12-22T06:47:16.796Z,-1.20
2018-12-22T06:49:45.268Z,-1.20
2018-12-22T06:52:13.733Z,-1.30
2018-12-22T06:54:42.194Z,-1.30
2018-12-22T06:57:10.666Z,-1.30
2018-12-22T06:59:39.128Z,-1.30
2018-12-22T07:02:07.584Z,-1.30
2018-12-22T07:04:36.142Z,-1.30
2018-12-22T07:07:04.605Z,-1.30
2018-12-22T07:09:33.070Z,-1.20
2018-12-22T07:12:01.531Z,-1.30
2018-12-22T07:14:30.023Z,-1.20
2018-12-22T07:16:58.514Z,-1.30
2018-12-22T07:19:26.967Z,-1.30
2018-12-22T07:21:55.485Z,-1.30
2018-12-22T07:24:23.958Z,-1.30
2018-12-22T07:26:52.414Z,-1.30
2018-12-22T07:29:20.931Z,-1.30
2018-12-22T07:31:49.409Z,-1.30
2018-12-22T07:34:17.882Z,-1.30
2018-12-22T07:36:46.364Z,-1.30
2018-12-22T07:39:14.830Z,-1.20
2018-12-22T07:41:43.308Z,-1.20
2018-12-22T07:44:11.775Z,-1.20
2018-12-22T07:46:40.239Z,-1.20
2018-12-22T07:49:08.722Z,-1.20
2018-12-22T07:51:37.370Z,-1.20
2018-12-22T07:54:05.870Z,-1.20
2018-12-22T07:56:34.327Z,-1.10
2018-12-22T07:59:02.782Z,-1.20
2018-12-22T08:01:31.249Z,-1.20
2018-12-22T08:03:59.714Z,-1.20
2018-12-22T08:06:28.179Z,-1.20
2018-12-22T08:08:56.666Z,-1.20
2018-12-22T08:11:25.135Z,-1.20
2018-12-22T08:13:53.593Z,-1.10
2018-12-22T08:16:22.069Z,-1.10
2018-12-22T08:18:50.525Z,-1.10
2018-12-22T08:21:19.026Z,-1.10
2018-12-22T08:23:47.556Z,-1.10
2018-12-22T08:26:16.042Z,-1.10
2018-12-22T08:28:44.593Z,-1.20
2018-12-22T08:31:13.077Z,-1.20
2018-12-22T08:33:41.562Z,-1.20
2018-12-22T08:36:10.066Z,-1.20
2018-12-22T08:38:38.529Z,-1.10
2018-12-22T08:41:07.005Z,-1.00
2018-12-22T08:43:35.540Z,-1.10
2018-12-22T08:46:04.090Z,-1.10
2018-12-22T08:48:32.557Z,-1.10
2018-12-22T08:51:02.735Z,-1.10
2018-12-22T08:53:31.425Z,-1.00
2018-12-22T08:55:59.906Z,-1.10
2018-12-22T08:58:28.404Z,-1.10
2018-12-22T09:00:56.853Z,-1.10
2018-12-22T09:03:25.338Z,-1.10
2018-12-22T09:05:53.811Z,-1.10
2018-12-22T09:08:22.281Z,-1.00
2018-12-22T09:10:50.751Z,-1.00
2018-12-22T09:13:20.913Z,-1.00
2018-12-22T09:15:49.726Z,-1.00
2018-12-22T09:18:18.192Z,-1.00
2018-12-22T09:20:46.714Z,-0.90
2018-12-22T09:23:15.234Z,-0.90
2018-12-22T09:25:43.727Z,-0.90
2018-12-22T09:28:12.193Z,-0.90
2018-12-22T09:30:40.663Z,-0.90
2018-12-22T09:33:09.287Z,-0.90
2018-12-22T09:35:37.752Z,-0.70
2018-12-22T09:38:06.238Z,-0.70
2018-12-22T09:40:34.870Z,-0.70
2018-12-22T09:43:03.357Z,-0.60
2018-12-22T09:45:31.850Z,-0.70
2018-12-22T09:48:00.386Z,-0.70
2018-12-22T09:50:28.883Z,-0.70
2018-12-22T09:52:57.366Z,-0.60
2018-12-22T09:55:25.826Z,-0.60
2018-12-22T09:57:54.287Z,-0.60
2018-12-22T10:00:22.762Z,-0.70
2018-12-22T10:02:51.235Z,-0.70
2018-12-22T10:05:19.751Z,-0.60
2018-12-22T10:07:48.214Z,-0.60
2018-12-22T10:10:18.089Z,-0.70
2018-12-22T10:12:46.969Z,-0.60
2018-12-22T10:15:15.508Z,-0.60
2018-12-22T10:17:44.094Z,-0.60
2018-12-22T10:20:12.639Z,-0.50
2018-12-22T10:22:41.132Z,-0.60
2018-12-22T10:25:11.273Z,-0.60
2018-12-22T10:27:39.754Z,-0.50
2018-12-22T10:30:11.875Z,-0.40
2018-12-22T10:32:40.342Z,-0.50
2018-12-22T10:35:12.761Z,-0.50
2018-12-22T10:37:41.239Z,-0.50
2018-12-22T10:40:09.945Z,-0.50
2018-12-22T10:42:38.440Z,-0.50
2018-12-22T10:45:07.446Z,-0.50
2018-12-22T10:47:36.229Z,-0.50
2018-12-22T10:50:05.241Z,-0.50
2018-12-22T10:52:33.818Z,-0.60
2018-12-22T10:55:02.274Z,-0.60
2018-12-22T10:57:30.906Z,-0.60
2018-12-22T10:59:59.418Z,-0.70
2018-12-22T11:02:27.881Z,-0.70
2018-12-22T11:04:56.396Z,-0.60
2018-12-22T11:07:24.879Z,-0.70
2018-12-22T11:09:53.422Z,-0.70
2018-12-22T11:12:21.942Z,-0.70
2018-12-22T11:14:50.421Z,-0.80
2018-12-22T11:17:18.911Z,-0.80
2018-12-22T11:19:47.880Z,-0.80
2018-12-22T11:22:16.371Z,-0.80
2018-12-22T11:24:44.918Z,-0.90
2018-12-22T11:27:13.446Z,-1.00
2018-12-22T11:29:42.430Z,-0.90
2018-12-22T11:32:10.974Z,-0.90
2018-12-22T11:34:39.782Z,-0.90
2018-12-22T11:37:08.274Z,-0.90
2018-12-22T11:39:36.748Z,-1.00
2018-12-22T11:42:06.078Z,-0.90
2018-12-22T11:44:35.549Z,-0.90
2018-12-22T11:47:10.541Z,-1.00
2018-12-22T11:49:52.339Z,-0.90
2018-12-22T11:52:21.184Z,-0.90
2018-12-22T11:54:49.715Z,-1.00
2018-12-22T11:57:18.178Z,-0.90
2018-12-22T11:59:46.813Z,-0.90
2018-12-22T12:02:16.464Z,-0.90
2018-12-22T12:04:44.986Z,-0.90
2018-12-22T12:07:14.286Z,-0.90
2018-12-22T12:09:43.274Z,-0.90
2018-12-22T12:12:11.733Z,-0.90
2018-12-22T12:14:40.882Z,-0.90
2018-12-22T12:17:23.227Z,-1.00
2018-12-22T12:19:51.697Z,-1.00
2018-12-22T12:22:20.156Z,-1.00
2018-12-22T12:24:48.637Z,-1.00
2018-12-22T12:27:17.199Z,-1.10
2018-12-22T12:29:45.658Z,-1.10
2018-12-22T12:32:14.118Z,-1.10
2018-12-22T12:34:42.606Z,-0.90
2018-12-22T12:37:11.106Z,-1.00
2018-12-22T12:39:39.566Z,-1.00
2018-12-22T12:42:08.080Z,-1.00
2018-12-22T12:44:38.050Z,-1.10
2018-12-22T12:47:06.529Z,-1.20
2018-12-22T12:49:35.025Z,-1.10
2018-12-22T12:52:03.530Z,-1.20
2018-12-22T12:54:32.035Z,-1.30
2018-12-22T12:57:01.066Z,-1.40
2018-12-22T12:59:31.662Z,-1.30
2018-12-22T13:02:01.522Z,-1.30
2018-12-22T13:04:30.117Z,-1.40
2018-12-22T13:06:59.130Z,-1.50
2018-12-22T13:09:27.628Z,-1.50
2018-12-22T13:11:59.234Z,-1.50
2018-12-22T13:14:27.722Z,-1.60
2018-12-22T13:16:56.228Z,-1.60
2018-12-22T13:19:24.739Z,-1.60
2018-12-22T13:21:54.515Z,-1.70
2018-12-22T13:24:22.991Z,-1.60
2018-12-22T13:26:51.497Z,-1.60
2018-12-22T13:29:20.049Z,-1.70
2018-12-22T13:31:48.531Z,-1.60
2018-12-22T13:34:17.043Z,-1.60
2018-12-22T13:36:45.578Z,-1.60
2018-12-22T13:39:24.458Z,-1.60
2018-12-22T13:41:52.958Z,-1.60
2018-12-22T13:44:21.417Z,-1.60
2018-12-22T13:46:49.954Z,-1.60
2018-12-22T13:49:18.855Z,-1.60
2018-12-22T13:51:47.705Z,-1.60
2018-12-22T13:54:20.450Z,-1.60
2018-12-22T13:56:48.921Z,-1.60
2018-12-22T13:59:17.394Z,-1.50
2018-12-22T14:01:50.942Z,-1.50
2018-12-22T14:04:19.479Z,-1.50
2018-12-22T14:06:48.993Z,-1.50
2018-12-22T14:09:17.506Z,-1.50
2018-12-22T14:11:45.974Z,-1.50
2018-12-22T14:14:18.634Z,-1.50
2018-12-22T14:16:59.479Z,-1.50
2018-12-22T14:19:27.968Z,-1.50
2018-12-22T14:21:56.442Z,-1.50
2018-12-22T14:24:43.167Z,-1.50
2018-12-22T14:27:13.250Z,-1.50
2018-12-22T14:29:41.979Z,-1.50
2018-12-22T14:32:10.454Z,-1.50
2018-12-22T14:34:47.571Z,-1.60
2018-12-22T14:37:16.177Z,-1.50
2018-12-22T14:39:44.649Z,-1.50
2018-12-22T14:42:13.126Z,-1.50
2018-12-22T14:44:41.585Z,-1.60
2018-12-22T14:47:10.054Z,-1.50
2018-12-22T14:49:38.522Z,-1.60
2018-12-22T14:53:09.354Z,-1.60
2018-12-22T14:55:37.847Z,-1.60
2018-12-22T14:58:12.336Z,-1.60
2018-12-22T15:00:40.886Z,-1.70
2018-12-22T15:03:09.346Z,-1.70
2018-12-22T15:05:38.034Z,-1.80
2018-12-22T15:08:06.565Z,-1.80
2018-12-22T15:10:35.065Z,-1.90
2018-12-22T15:13:03.554Z,-1.90
2018-12-22T15:15:32.038Z,-2.00
2018-12-22T15:18:00.575Z,-2.00
2018-12-22T15:20:30.862Z,-2.00
2018-12-22T15:22:59.541Z,-2.00
2018-12-22T15:25:28.502Z,-2.10
2018-12-22T15:27:57.145Z,-2.20
2018-12-22T15:30:25.646Z,-2.20
2018-12-22T15:32:54.934Z,-2.20
2018-12-22T15:35:23.710Z,-2.30
2018-12-22T15:37:52.181Z,-2.30
2018-12-22T15:40:20.949Z,-2.40
2018-12-22T15:42:49.448Z,-2.40
2018-12-22T15:45:17.976Z,-2.40
2018-12-22T15:47:46.514Z,-2.40
2018-12-22T15:50:17.734Z,-2.40
2018-12-22T15:52:46.422Z,-2.40
2018-12-22T15:55:15.353Z,-2.40
2018-12-22T15:57:43.962Z,-2.30
2018-12-22T16:00:13.448Z,-2.40
2018-12-22T16:02:42.012Z,-2.40
2018-12-22T16:05:10.872Z,-2.40
2018-12-22T16:07:39.858Z,-2.40
2018-12-22T16:10:11.999Z,-2.40
2018-12-22T16:12:40.668Z,-2.40
2018-12-22T16:15:12.016Z,-2.50
2018-12-22T16:17:40.497Z,-2.40
2018-12-22T16:20:10.680Z,-2.50
2018-12-22T16:22:40.458Z,-2.30
2018-12-22T16:25:11.601Z,-2.30
2018-12-22T16:27:40.275Z,-2.30
2018-12-22T16:30:14.896Z,-2.20
2018-12-22T16:32:43.368Z,-2.10
2018-12-22T16:35:11.885Z,-2.10
2018-12-22T16:37:40.356Z,-2.10
2018-12-22T16:40:10.832Z,-2.20
2018-12-22T16:42:39.336Z,-2.20
2018-12-22T16:45:11.123Z,-2.10
2018-12-22T16:47:39.655Z,-2.10
2018-12-22T16:50:10.910Z,-2.20
2018-12-22T16:52:39.412Z,-2.20
2018-12-22T16:55:11.152Z,-2.20
2018-12-22T16:57:42.301Z,-2.10
2018-12-22T17:00:15.762Z,-2.10
2018-12-22T17:03:10.663Z,-2.10
2018-12-22T17:05:36.449Z,-2.00
2018-12-22T17:08:05.795Z,-2.10
2018-12-22T17:10:41.237Z,-2.10
2018-12-22T17:13:11.160Z,-2.10
2018-12-22T17:15:44.005Z,-2.10
2018-12-22T17:18:12.942Z,-2.20
2018-12-22T17:20:41.450Z,-2.20
2018-12-22T17:23:34.706Z,-2.20
2018-12-22T17:26:06.505Z,-2.20
2018-12-22T17:28:35.073Z,-2.20
2018-12-22T17:31:03.574Z,-2.30
2018-12-22T17:33:32.054Z,-2.30
2018-12-22T17:36:00.550Z,-2.30
2018-12-22T17:38:29.410Z,-2.30
2018-12-22T17:40:59.931Z,-2.30
2018-12-22T17:43:28.917Z,-2.20
2018-12-22T17:45:57.403Z,-2.20
2018-12-22T17:48:25.879Z,-2.20
2018-12-22T17:50:55.702Z,-2.20
2018-12-22T17:53:24.216Z,-2.20
2018-12-22T17:55:52.701Z,-2.20
2018-12-22T17:58:21.191Z,-2.20
2018-12-22T18:00:49.709Z,-2.20
2018-12-22T18:03:27.212Z,-2.20
2018-12-22T18:05:50.090Z,-2.20
2018-12-22T18:08:18.562Z,-2.20
2018-12-22T18:10:47.022Z,-2.20
2018-12-22T18:13:15.510Z,-2.10
2018-12-22T18:15:43.965Z,-2.20
2018-12-22T18:18:12.453Z,-2.30
2018-12-22T18:20:40.946Z,-2.20
2018-12-22T18:23:09.417Z,-2.20
2018-12-22T18:25:37.890Z,-2.20
2018-12-22T18:28:06.575Z,-2.30
2018-12-22T18:30:35.039Z,-2.30
2018-12-22T18:33:03.599Z,-2.30
2018-12-22T18:35:32.106Z,-2.30
2018-12-22T18:38:00.600Z,-2.30
2018-12-22T18:40:29.078Z,-2.40
2018-12-22T18:42:57.577Z,-2.40
2018-12-22T18:45:26.100Z,-2.40
2018-12-22T18:47:54.622Z,-2.40
2018-12-22T18:50:25.434Z,-2.40
2018-12-22T18:52:53.894Z,-2.40
2018-12-22T18:55:22.406Z,-2.40
2018-12-22T18:57:53.382Z,-2.40
2018-12-22T19:00:22.968Z,-2.50
2018-12-22T19:02:52.385Z,-2.40
2018-12-22T19:05:22.014Z,-2.40
2018-12-22T19:07:52.994Z,-2.40
2018-12-22T19:10:25.483Z,-2.50
2018-12-22T19:12:56.151Z,-2.50
2018-12-22T19:15:24.636Z,-2.50
2018-12-22T19:17:53.111Z,-2.50
2018-12-22T19:20:25.699Z,-2.50
2018-12-22T19:22:54.202Z,-2.50
2018-12-22T19:25:22.678Z,-2.60
2018-12-22T19:27:51.157Z,-2.60
2018-12-22T19:30:19.661Z,-2.60
2018-12-22T19:32:48.137Z,-2.60
2018-12-22T19:35:16.625Z,-2.60
2018-12-22T19:37:45.103Z,-2.70
2018-12-22T19:40:13.677Z,-2.70
2018-12-22T19:42:42.142Z,-2.60
2018-12-22T19:45:10.778Z,-2.70
2018-12-22T19:47:39.245Z,-2.70
2018-12-22T19:50:07.870Z,-2.80
2018-12-22T19:52:36.337Z,-2.70
2018-12-22T19:55:05.276Z,-2.80
2018-12-22T19:57:34.238Z,-2.80
2018-12-22T20:00:02.900Z,-2.90
2018-12-22T20:02:31.374Z,-2.90
2018-12-22T20:04:59.850Z,-2.90
2018-12-22T20:07:28.373Z,-3.00
2018-12-22T20:09:56.841Z,-2.90
2018-12-22T20:12:25.326Z,-3.00
2018-12-22T20:14:53.815Z,-3.00
2018-12-22T20:17:22.304Z,-2.90
2018-12-22T20:19:50.794Z,-2.90
2018-12-22T20:22:19.263Z,-3.00
2018-12-22T20:24:47.784Z,-3.00
2018-12-22T20:27:16.268Z,-3.00
2018-12-22T20:29:44.738Z,-3.10
2018-12-22T20:32:13.212Z,-3.20
2018-12-22T20:34:41.682Z,-3.30
2018-12-22T20:37:10.574Z,-3.30
2018-12-22T20:39:39.054Z,-3.30
2018-12-22T20:42:08.005Z,-3.30
2018-12-22T20:44:36.495Z,-3.40
2018-12-22T20:47:04.974Z,-3.40
2018-12-22T20:49:33.455Z,-3.30
2018-12-22T20:52:01.966Z,-3.20
2018-12-22T20:54:30.442Z,-3.20
2018-12-22T20:56:58.910Z,-3.20
2018-12-22T20:59:27.397Z,-3.20
2018-12-22T21:01:55.871Z,-3.30
2018-12-22T21:04:24.373Z,-3.20
2018-12-22T21:06:52.826Z,-3.30
2018-12-22T21:09:21.306Z,-3.30
2018-12-22T21:11:49.947Z,-3.30
2018-12-22T21:14:18.438Z,-3.50
2018-12-22T21:16:47.529Z,-3.40
2018-12-22T21:19:16.398Z,-3.40
2018-12-22T21:21:44.873Z,-3.30
2018-12-22T21:24:13.374Z,-3.40
2018-12-22T21:26:41.893Z,-3.40
2018-12-22T21:29:10.362Z,-3.40
2018-12-22T21:31:39.064Z,-3.50
2018-12-22T21:34:07.577Z,-3.50
2018-12-22T21:36:36.054Z,-3.50
2018-12-22T21:39:06.129Z,-3.50
2018-12-22T21:41:34.624Z,-3.50
2018-12-22T21:44:03.149Z,-3.60
2018-12-22T21:46:31.618Z,-3.60
2018-12-22T21:49:00.126Z,-3.50
2018-12-22T21:51:28.618Z,-3.50
2018-12-22T21:53:57.103Z,-3.50
2018-12-22T21:56:25.626Z,-3.40
2018-12-22T21:58:54.176Z,-3.40
2018-12-22T22:01:22.737Z,-3.40
2018-12-22T22:03:51.642Z,-3.50
2018-12-22T22:06:20.138Z,-3.60
2018-12-22T22:08:48.621Z,-3.50
2018-12-22T22:11:17.127Z,-3.50
2018-12-22T22:13:45.608Z,-3.50
2018-12-22T22:16:14.115Z,-3.40
2018-12-22T22:18:42.586Z,-3.40
2018-12-22T22:21:11.179Z,-3.40
2018-12-22T22:23:39.793Z,-3.40
2018-12-22T22:26:08.359Z,-3.30
2018-12-22T22:28:36.842Z,-3.40
2018-12-22T22:31:05.309Z,-3.30
2018-12-22T22:33:33.818Z,-3.40
2018-12-22T22:36:02.286Z,-3.40
2018-12-22T22:38:30.773Z,-3.40
2018-12-22T22:40:59.250Z,-3.40
2018-12-22T22:43:28.474Z,-3.30
2018-12-22T22:45:56.962Z,-3.30
2018-12-22T22:48:25.443Z,-3.30
2018-12-22T22:50:54.021Z,-3.30
2018-12-22T22:53:22.535Z,-3.40
2018-12-22T22:55:51.030Z,-3.40
2018-12-22T22:58:19.498Z,-3.40
2018-12-22T23:00:48.295Z,-3.30
2018-12-22T23:03:16.769Z,-3.40
2018-12-22T23:05:45.278Z,-3.40
2018-12-22T23:08:13.765Z,-3.40
2018-12-22T23:10:42.254Z,-3.40
2018-12-22T23:13:10.774Z,-3.40
2018-12-22T23:15:39.431Z,-3.40
2018-12-22T23:18:07.923Z,-3.50
2018-12-22T23:20:36.446Z,-3.40
2018-12-22T23:23:04.935Z,-3.40
2018-12-22T23:25:33.466Z,-3.40
2018-12-22T23:28:01.950Z,-3.50
2018-12-22T23:30:30.440Z,-3.40
2018-12-22T23:32:58.917Z,-3.40
2018-12-22T23:35:27.386Z,-3.40
2018-12-22T23:37:55.910Z,-3.40
2018-12-22T23:40:24.434Z,-3.40
2018-12-22T23:42:52.910Z,-3.30
2018-12-22T23:45:21.434Z,-3.40
2018-12-22T23:47:50.019Z,-3.40
2018-12-22T23:50:18.573Z,-3.40
2018-12-22T23:52:47.170Z,-3.40
2018-12-22T23:55:15.732Z,-3.50
2018-12-22T23:57:44.223Z,-3.40
